Time;durP1;ratioP1;P1;durP2;ratioP2;P2;SDS_P1;SDS_P2;PMS_P1;PMS_P2;Temp;Humidity;BMP_temperature;BMP_pressure;BME280_temperature;BME280_humidity;BME280_pressure;Samples;Min_cycle;Max_cycle;Signal;HPM_P1;HPM_P2
2023/06/19 00:01:59;;;;;;;8.63;6.53;;;;;;;20.86;100.00;100657.75;5267478;28;20024;-69
2023/06/19 00:04:30;;;;;;;7.93;6.80;;;;;;;20.83;100.00;100668.16;5266223;28;20035;-69
2023/06/19 00:07:03;;;;;;;7.28;6.55;;;;;;;20.77;100.00;100667.06;5267208;28;20087;-69
2023/06/19 00:09:34;;;;;;;8.10;6.88;;;;;;;20.71;100.00;100660.50;5265226;28;20028;-68
2023/06/19 00:12:06;;;;;;;8.60;6.45;;;;;;;20.66;100.00;100673.78;5266100;28;20057;-68
2023/06/19 00:14:37;;;;;;;7.50;6.68;;;;;;;20.59;100.00;100680.94;5272282;28;20132;-68
2023/06/19 00:17:08;;;;;;;10.20;6.72;;;;;;;20.59;100.00;100683.66;5266046;28;20348;-68
2023/06/19 00:19:40;;;;;;;7.63;6.43;;;;;;;20.52;100.00;100683.56;5267671;28;20036;-68
2023/06/19 00:22:11;;;;;;;8.05;6.68;;;;;;;20.43;100.00;100679.28;5265192;28;20739;-69
2023/06/19 00:24:43;;;;;;;9.60;7.28;;;;;;;20.42;100.00;100687.56;5265155;28;20355;-68
2023/06/19 00:27:14;;;;;;;7.80;6.53;;;;;;;20.47;100.00;100686.00;5266822;28;20031;-68
2023/06/19 00:29:46;;;;;;;7.30;6.57;;;;;;;20.35;100.00;100695.63;5266608;28;20040;-68
2023/06/19 00:32:17;;;;;;;9.98;7.10;;;;;;;20.29;100.00;100696.38;5263532;28;20071;-69
2023/06/19 00:34:48;;;;;;;10.52;6.57;;;;;;;20.17;100.00;100702.22;5265109;28;20546;-68
2023/06/19 00:37:20;;;;;;;8.00;7.20;;;;;;;20.20;100.00;100706.44;5264866;28;20035;-68
2023/06/19 00:39:51;;;;;;;13.43;7.55;;;;;;;20.03;100.00;100704.91;5266749;28;20025;-68
2023/06/19 00:42:22;;;;;;;9.38;6.50;;;;;;;20.13;100.00;100700.06;5263949;28;20032;-68
2023/06/19 00:44:54;;;;;;;8.45;6.90;;;;;;;20.07;100.00;100711.63;5265538;28;20051;-68
2023/06/19 00:47:25;;;;;;;7.70;6.90;;;;;;;19.98;100.00;100716.25;5269022;28;20032;-68
2023/06/19 00:49:57;;;;;;;8.32;5.88;;;;;;;19.95;100.00;100722.91;5262661;28;20488;-69
2023/06/19 00:52:28;;;;;;;8.95;6.43;;;;;;;19.98;100.00;100718.97;5268059;28;20174;-68
2023/06/19 00:55:00;;;;;;;8.10;6.22;;;;;;;19.92;100.00;100714.28;5268875;28;20039;-68
2023/06/19 00:57:32;;;;;;;7.38;6.13;;;;;;;19.86;100.00;100721.28;5265736;28;20033;-68
2023/06/19 01:00:07;;;;;;;7.20;6.20;;;;;;;19.87;100.00;100730.25;5268772;28;20514;-68
2023/06/19 01:02:39;;;;;;;9.57;5.82;;;;;;;19.75;100.00;100730.69;5269074;28;20523;-68
2023/06/19 01:05:11;;;;;;;6.93;5.55;;;;;;;19.78;100.00;100727.59;5264421;28;20017;-68
2023/06/19 01:07:45;;;;;;;8.52;5.85;;;;;;;19.75;100.00;100730.69;5272865;28;20062;-69
2023/06/19 01:10:23;;;;;;;6.88;6.18;;;;;;;19.71;100.00;100729.31;5265935;28;20033;-69
2023/06/19 01:13:25;;;;;;;9.70;6.05;;;;;;;19.73;100.00;100729.16;5260641;28;21594;-68
2023/06/19 01:15:58;;;;;;;7.32;5.32;;;;;;;19.70;100.00;100729.50;5268821;28;20119;-68
2023/06/19 01:18:31;;;;;;;8.18;5.68;;;;;;;19.64;100.00;100743.75;5266125;28;20648;-68
2023/06/19 01:21:14;;;;;;;10.43;5.43;;;;;;;19.61;100.00;100734.13;5267423;28;20028;-68
2023/06/19 01:23:46;;;;;;;7.68;5.90;;;;;;;19.54;100.00;100734.00;5268851;28;21407;-68
2023/06/19 01:26:22;;;;;;;6.38;4.85;;;;;;;19.55;100.00;100738.38;5273010;28;20032;-68
2023/06/19 01:28:56;;;;;;;6.45;5.07;;;;;;;19.52;100.00;100732.47;5270776;28;20032;-68
2023/06/19 01:31:35;;;;;;;5.55;4.40;;;;;;;19.52;100.00;100746.00;5269571;28;20351;-68
2023/06/19 01:34:08;;;;;;;6.32;4.85;;;;;;;19.41;100.00;100733.75;5267126;28;20157;-68
2023/06/19 01:36:40;;;;;;;5.50;4.20;;;;;;;19.41;100.00;100741.88;5277113;28;20058;-69
2023/06/19 01:39:12;;;;;;;6.53;4.20;;;;;;;19.40;100.00;100741.00;5267695;28;20036;-68
2023/06/19 01:41:46;;;;;;;6.13;4.22;;;;;;;19.36;100.00;100749.66;5273240;28;20364;-68
2023/06/19 01:44:17;;;;;;;5.35;4.13;;;;;;;19.35;100.00;100748.81;5274961;28;20040;-68
2023/06/19 01:46:50;;;;;;;5.70;3.95;;;;;;;19.30;100.00;100750.38;5269512;28;20773;-68
2023/06/19 01:49:21;;;;;;;7.43;3.95;;;;;;;19.28;100.00;100757.81;5266006;28;20032;-68
2023/06/19 01:51:53;;;;;;;5.53;3.97;;;;;;;19.24;100.00;100754.63;5270610;28;20086;-69
2023/06/19 01:54:24;;;;;;;6.18;4.03;;;;;;;19.17;100.00;100754.47;5271187;28;20056;-68
2023/06/19 01:56:57;;;;;;;6.18;3.72;;;;;;;19.16;100.00;100755.50;5271880;28;20651;-68
2023/06/19 01:59:28;;;;;;;5.00;3.58;;;;;;;19.12;100.00;100765.00;5271176;28;20063;-68
2023/06/19 02:02:00;;;;;;;5.00;3.40;;;;;;;19.13;100.00;100765.84;5269722;28;20036;-68
2023/06/19 02:04:31;;;;;;;5.82;3.45;;;;;;;19.07;100.00;100764.69;5265312;28;20021;-68
2023/06/19 02:07:03;;;;;;;5.78;3.70;;;;;;;19.09;100.00;100757.22;5269176;28;20040;-68
2023/06/19 02:09:34;;;;;;;4.88;3.38;;;;;;;19.04;100.00;100764.19;5272539;28;20032;-68
2023/06/19 02:12:06;;;;;;;4.68;3.05;;;;;;;19.03;100.00;100776.03;5270434;28;20032;-68
2023/06/19 02:14:37;;;;;;;6.93;3.58;;;;;;;19.08;100.00;100776.31;5269641;28;20024;-68
2023/06/19 02:17:09;;;;;;;4.63;3.13;;;;;;;19.07;100.00;100769.25;5268164;28;20334;-68
2023/06/19 02:19:40;;;;;;;4.78;2.97;;;;;;;19.03;100.00;100774.16;5269474;28;20031;-67
2023/06/19 02:22:12;;;;;;;4.65;3.15;;;;;;;19.00;100.00;100769.09;5267076;28;20489;-69
2023/06/19 02:24:44;;;;;;;4.93;3.25;;;;;;;18.98;100.00;100784.63;5269680;28;20039;-68
2023/06/19 02:27:15;;;;;;;4.85;3.00;;;;;;;18.95;100.00;100782.31;5264814;28;20110;-68
2023/06/19 02:29:47;;;;;;;4.40;2.58;;;;;;;18.89;100.00;100781.13;5265471;28;20040;-68
2023/06/19 02:32:18;;;;;;;4.60;2.78;;;;;;;18.91;100.00;100779.09;5267582;28;20402;-68
2023/06/19 02:34:50;;;;;;;5.90;2.90;;;;;;;18.87;100.00;100776.91;5265313;28;20089;-68
2023/06/19 02:37:21;;;;;;;4.93;2.55;;;;;;;18.83;100.00;100776.44;5259087;28;20028;-68
2023/06/19 02:39:52;;;;;;;4.90;2.65;;;;;;;18.82;100.00;100785.53;5268565;28;20036;-68
2023/06/19 02:42:24;;;;;;;3.33;2.35;;;;;;;18.75;100.00;100776.41;5267118;28;20065;-68
2023/06/19 02:45:02;;;;;;;3.92;2.45;;;;;;;18.76;100.00;100775.41;5265642;28;20070;-68
2023/06/19 02:47:34;;;;;;;4.15;2.72;;;;;;;18.73;100.00;100783.84;5268320;28;20094;-68
2023/06/19 02:50:05;;;;;;;4.38;2.58;;;;;;;18.69;100.00;100783.34;5268308;28;20028;-69
2023/06/19 02:52:37;;;;;;;5.55;2.83;;;;;;;18.68;100.00;100792.47;5268370;28;20089;-68
2023/06/19 02:55:08;;;;;;;4.20;2.92;;;;;;;18.65;100.00;100792.81;5270673;28;20021;-68
2023/06/19 02:57:40;;;;;;;3.92;2.92;;;;;;;18.64;100.00;100796.53;5264135;28;20350;-68
2023/06/19 03:00:12;;;;;;;4.45;2.70;;;;;;;18.60;100.00;100795.16;5270380;28;20429;-68
2023/06/19 03:02:44;;;;;;;4.57;3.13;;;;;;;18.55;100.00;100797.56;5264098;28;20055;-69
2023/06/19 03:05:15;;;;;;;4.72;2.70;;;;;;;18.51;100.00;100802.47;5268309;28;20062;-68
2023/06/19 03:07:47;;;;;;;5.32;2.92;;;;;;;18.49;100.00;100804.50;5266847;28;20055;-68
2023/06/19 03:10:18;;;;;;;4.43;2.80;;;;;;;18.51;100.00;100807.88;5265797;28;20446;-68
2023/06/19 03:12:49;;;;;;;7.28;2.78;;;;;;;18.49;100.00;100815.28;5269338;28;20111;-68
2023/06/19 03:15:21;;;;;;;4.20;2.60;;;;;;;18.46;100.00;100818.31;5266402;28;20067;-68
2023/06/19 03:17:53;;;;;;;4.30;2.90;;;;;;;18.46;100.00;100822.91;5266988;28;20032;-69
2023/06/19 03:20:24;;;;;;;4.07;2.83;;;;;;;18.41;100.00;100818.84;5268371;28;20391;-68
2023/06/19 03:22:56;;;;;;;4.45;2.92;;;;;;;18.40;100.00;100816.31;5264363;28;20027;-67
2023/06/19 03:25:34;;;;;;;5.10;3.03;;;;;;;18.40;100.00;100819.00;5270260;28;20413;-68
2023/06/19 03:28:06;;;;;;;4.57;2.95;;;;;;;18.42;100.00;100825.09;5264075;28;20024;-68
2023/06/19 03:30:37;;;;;;;6.68;3.30;;;;;;;18.37;100.00;100822.03;5266937;28;20029;-68
2023/06/19 03:33:08;;;;;;;5.45;3.40;;;;;;;18.38;100.00;100821.03;5266396;28;20020;-68
2023/06/19 03:35:40;;;;;;;5.45;3.45;;;;;;;18.37;100.00;100820.19;5266457;28;20032;-68
2023/06/19 03:38:12;;;;;;;4.85;3.40;;;;;;;18.25;100.00;100832.34;5263946;28;20039;-68
2023/06/19 03:40:43;;;;;;;4.80;3.60;;;;;;;18.27;100.00;100833.00;5266944;28;20028;-68
2023/06/19 03:43:15;;;;;;;6.40;3.33;;;;;;;18.25;100.00;100837.75;5265234;28;20036;-68
2023/06/19 03:45:46;;;;;;;6.25;3.50;;;;;;;18.24;100.00;100846.88;5262541;28;20406;-68
2023/06/19 03:48:17;;;;;;;5.30;3.85;;;;;;;18.31;100.00;100847.88;5264707;28;20063;-68
2023/06/19 03:50:49;;;;;;;6.22;4.00;;;;;;;18.28;100.00;100855.50;5268304;28;20272;-68
2023/06/19 03:53:20;;;;;;;5.45;3.65;;;;;;;18.31;100.00;100850.56;5264262;28;20445;-68
2023/06/19 03:55:52;;;;;;;5.55;3.78;;;;;;;18.46;100.00;100858.84;5267427;28;20079;-68
2023/06/19 03:58:23;;;;;;;7.63;3.95;;;;;;;18.38;100.00;100861.56;5265362;28;20399;-68
2023/06/19 04:00:55;;;;;;;5.82;3.70;;;;;;;18.46;100.00;100866.97;5267487;28;20463;-68
2023/06/19 04:03:26;;;;;;;5.15;3.75;;;;;;;18.49;100.00;100868.50;5267371;28;20032;-68
2023/06/19 04:05:57;;;;;;;5.13;3.60;;;;;;;18.49;100.00;100874.75;5266551;28;20028;-68
2023/06/19 04:08:29;;;;;;;6.30;3.67;;;;;;;18.58;100.00;100868.31;5263875;28;20055;-68
2023/06/19 04:11:00;;;;;;;5.68;3.60;;;;;;;18.54;100.00;100877.78;5271529;28;20387;-68
2023/06/19 04:13:32;;;;;;;5.90;4.07;;;;;;;18.57;100.00;100877.44;5269923;28;20029;-68
2023/06/19 04:16:04;;;;;;;6.75;3.95;;;;;;;18.58;100.00;100881.84;5267607;28;20052;-68
2023/06/19 04:18:36;;;;;;;8.02;4.32;;;;;;;18.60;100.00;100881.66;5264155;28;20766;-68
2023/06/19 04:21:07;;;;;;;5.78;4.00;;;;;;;18.63;100.00;100891.28;5265976;28;20032;-68
2023/06/19 04:23:39;;;;;;;5.50;3.92;;;;;;;18.65;100.00;100891.97;5266530;28;20432;-68
2023/06/19 04:26:10;;;;;;;4.78;3.80;;;;;;;18.75;100.00;100884.50;5265097;28;20028;-68
2023/06/19 04:28:41;;;;;;;4.90;3.78;;;;;;;18.75;100.00;100898.03;5265325;28;21289;-68
2023/06/19 04:31:18;;;;;;;7.25;3.90;;;;;;;18.74;100.00;100891.78;5270569;28;20537;-69
2023/06/19 04:33:49;;;;;;;6.13;4.40;;;;;;;18.76;100.00;100907.84;5262597;28;20088;-68
2023/06/19 04:36:21;;;;;;;6.63;3.92;;;;;;;18.79;100.00;100910.19;5269083;28;20036;-68
2023/06/19 04:38:52;;;;;;;6.18;4.40;;;;;;;18.84;100.00;100910.56;5269862;28;20037;-68
2023/06/19 04:41:23;;;;;;;8.88;4.85;;;;;;;18.86;100.00;100913.09;5266060;28;20028;-68
2023/06/19 04:43:55;;;;;;;5.50;4.65;;;;;;;18.88;100.00;100908.38;5265561;28;20029;-68
2023/06/19 04:46:26;;;;;;;6.68;4.57;;;;;;;18.91;100.00;100911.59;5262484;28;20025;-69
2023/06/19 04:48:57;;;;;;;7.03;4.68;;;;;;;18.88;100.00;100914.63;5264118;28;20179;-68
2023/06/19 04:51:29;;;;;;;6.85;4.65;;;;;;;19.00;100.00;100925.91;5267517;28;20070;-68
2023/06/19 04:54:01;;;;;;;7.53;5.20;;;;;;;18.94;100.00;100927.44;5262834;28;20040;-68
2023/06/19 04:56:33;;;;;;;6.35;4.80;;;;;;;18.98;100.00;100925.25;5263230;28;20028;-68
2023/06/19 04:59:04;;;;;;;6.18;5.00;;;;;;;18.98;100.00;100920.72;5266673;28;20039;-68
2023/06/19 05:01:35;;;;;;;8.25;5.15;;;;;;;19.15;100.00;100917.97;5263793;28;20016;-68
2023/06/19 05:04:07;;;;;;;7.07;5.00;;;;;;;19.08;100.00;100925.94;5263880;28;20098;-68
2023/06/19 05:06:38;;;;;;;6.68;4.82;;;;;;;19.10;100.00;100914.91;5267159;28;20081;-68
2023/06/19 05:09:10;;;;;;;6.45;4.38;;;;;;;19.17;100.00;100918.63;5267377;28;20056;-68
2023/06/19 05:11:42;;;;;;;7.28;4.97;;;;;;;19.22;100.00;100924.38;5272653;28;20587;-68
2023/06/19 05:14:14;;;;;;;5.57;4.65;;;;;;;19.20;100.00;100927.25;5270728;28;20074;-67
2023/06/19 05:16:45;;;;;;;7.22;5.32;;;;;;;19.24;100.00;100929.63;5265622;28;20020;-70
2023/06/19 05:19:17;;;;;;;8.20;4.97;;;;;;;19.33;100.00;100931.28;5267849;28;20729;-68
2023/06/19 05:21:48;;;;;;;6.93;4.72;;;;;;;19.29;100.00;100935.34;5267879;28;20111;-68
2023/06/19 05:24:19;;;;;;;8.27;5.10;;;;;;;19.34;100.00;100938.38;5256099;28;20115;-68
2023/06/19 05:26:51;;;;;;;7.72;5.47;;;;;;;19.44;100.00;100939.03;5272672;28;20032;-68
2023/06/19 05:29:22;;;;;;;8.10;5.65;;;;;;;19.44;100.00;100943.59;5266183;28;20028;-68
2023/06/19 05:31:53;;;;;;;7.65;5.68;;;;;;;19.47;100.00;100940.56;5269065;28;20028;-68
2023/06/19 05:34:25;;;;;;;8.48;5.55;;;;;;;19.47;100.00;100949.50;5265257;28;20119;-68
2023/06/19 05:36:57;;;;;;;6.25;5.38;;;;;;;19.46;100.00;100946.97;5269137;28;20248;-68
2023/06/19 05:39:29;;;;;;;6.45;5.47;;;;;;;19.53;100.00;100946.09;5267095;28;20036;-68
2023/06/19 05:42:01;;;;;;;6.85;5.60;;;;;;;19.57;100.00;100946.63;5274234;28;20013;-68
2023/06/19 05:44:33;;;;;;;7.25;5.28;;;;;;;19.53;100.00;100954.22;5271671;28;20044;-68
2023/06/19 05:47:04;;;;;;;8.02;5.40;;;;;;;19.57;100.00;100950.16;5268835;28;20029;-68
2023/06/19 05:49:36;;;;;;;7.57;5.32;;;;;;;19.64;100.00;100950.31;5266568;28;20090;-68
2023/06/19 05:52:07;;;;;;;7.72;5.82;;;;;;;19.68;100.00;100953.53;5276921;28;20367;-68
2023/06/19 05:54:39;;;;;;;9.23;6.38;;;;;;;19.71;100.00;100950.44;5272018;28;20043;-68
2023/06/19 05:57:11;;;;;;;7.95;6.40;;;;;;;19.73;100.00;100952.00;5275736;28;20047;-68
2023/06/19 05:59:42;;;;;;;7.97;5.78;;;;;;;19.77;100.00;100944.34;5274216;28;20029;-68
2023/06/19 06:02:15;;;;;;;7.10;5.93;;;;;;;19.82;100.00;100938.44;5272749;28;20024;-68
2023/06/19 06:04:46;;;;;;;8.52;6.13;;;;;;;19.87;100.00;100947.72;5267646;28;20416;-68
2023/06/19 06:07:17;;;;;;;8.18;6.43;;;;;;;19.88;100.00;100954.81;5273626;28;20095;-68
2023/06/19 06:09:49;;;;;;;6.40;5.80;;;;;;;19.87;100.00;100953.13;5273523;28;20425;-68
2023/06/19 06:12:20;;;;;;;9.65;6.40;;;;;;;19.91;100.00;100957.19;5266288;28;20029;-68
2023/06/19 06:14:51;;;;;;;9.20;6.75;;;;;;;19.93;100.00;100973.25;5268924;28;20399;-68
2023/06/19 06:17:23;;;;;;;6.72;6.03;;;;;;;19.95;100.00;100971.22;5268007;28;20121;-68
2023/06/19 06:19:54;;;;;;;8.35;7.43;;;;;;;19.98;100.00;100984.38;5270570;28;20052;-68
2023/06/19 06:22:26;;;;;;;9.07;7.70;;;;;;;19.98;100.00;100979.84;5272734;28;20402;-70
2023/06/19 06:24:57;;;;;;;8.20;7.35;;;;;;;20.01;100.00;100984.03;5262291;28;20429;-68
2023/06/19 06:27:29;;;;;;;9.15;8.20;;;;;;;20.00;100.00;100976.97;5268847;28;20036;-68
2023/06/19 06:30:00;;;;;;;10.68;8.40;;;;;;;20.06;100.00;100983.50;5269979;28;20398;-68
2023/06/19 06:32:32;;;;;;;8.60;7.70;;;;;;;20.08;100.00;100993.16;5274288;28;20752;-68
2023/06/19 06:35:04;;;;;;;9.25;8.27;;;;;;;20.13;100.00;100996.16;5270383;28;20025;-68
2023/06/19 06:37:35;;;;;;;9.90;8.30;;;;;;;20.16;100.00;100998.53;5270777;28;20580;-68
2023/06/19 06:40:13;;;;;;;10.50;8.90;;;;;;;20.20;100.00;101000.91;5273726;28;20020;-68
2023/06/19 06:42:45;;;;;;;9.25;7.90;;;;;;;20.28;100.00;101014.41;5268028;28;20086;-69
2023/06/19 06:45:16;;;;;;;9.07;8.18;;;;;;;20.39;100.00;101007.75;5264869;28;20040;-68
2023/06/19 06:47:47;;;;;;;8.77;7.88;;;;;;;20.47;100.00;101011.25;5263901;28;20133;-68
2023/06/19 06:50:19;;;;;;;8.70;7.80;;;;;;;20.59;100.00;101008.97;5270054;28;20036;-68
2023/06/19 06:52:50;;;;;;;8.80;7.80;;;;;;;20.70;100.00;101015.88;5272818;28;20031;-68
2023/06/19 06:55:22;;;;;;;13.27;8.88;;;;;;;20.71;100.00;101028.41;5269086;28;20037;-68
2023/06/19 06:57:53;;;;;;;9.98;8.60;;;;;;;20.74;100.00;101019.91;5271589;28;20032;-68
2023/06/19 07:00:24;;;;;;;9.95;8.70;;;;;;;20.75;100.00;101025.16;5270396;28;20044;-68
2023/06/19 07:02:56;;;;;;;9.75;8.18;;;;;;;20.76;100.00;101015.16;5262541;28;20116;-68
2023/06/19 07:05:29;;;;;;;8.68;7.78;;;;;;;20.80;100.00;101016.47;5261988;28;20039;-69
2023/06/19 07:08:02;;;;;;;9.55;8.60;;;;;;;20.85;100.00;101035.78;5266601;28;20083;-68
2023/06/19 07:10:33;;;;;;;12.15;9.30;;;;;;;20.87;100.00;101032.91;5270990;28;20029;-68
2023/06/19 07:13:04;;;;;;;10.57;9.48;;;;;;;20.81;100.00;101042.59;5269555;28;20020;-69
2023/06/19 07:15:36;;;;;;;9.77;8.77;;;;;;;20.81;100.00;101037.16;5267483;28;20024;-68
2023/06/19 07:18:07;;;;;;;11.13;9.57;;;;;;;20.84;100.00;101038.66;5265301;28;20819;-69
2023/06/19 07:20:38;;;;;;;10.52;9.07;;;;;;;20.90;100.00;101038.81;5271219;28;20024;-68
2023/06/19 07:23:10;;;;;;;10.55;9.32;;;;;;;20.94;100.00;101047.41;5267378;28;20394;-68
2023/06/19 07:25:41;;;;;;;9.95;8.85;;;;;;;20.98;100.00;101056.03;5267397;28;20028;-68
2023/06/19 07:28:13;;;;;;;10.32;9.23;;;;;;;20.98;100.00;101050.59;5269866;28;20032;-68
2023/06/19 07:30:47;;;;;;;9.68;8.70;;;;;;;20.92;100.00;101046.72;5270889;28;20418;-68
2023/06/19 07:33:18;;;;;;;;;;;;;;;21.01;100.00;101063.81;5263421;28;20024;-68
2023/06/19 07:35:50;;;;;;;8.55;7.65;;;;;;;20.83;100.00;101054.09;5268872;28;19943;-68
2023/06/19 07:38:21;;;;;;;8.65;7.85;;;;;;;20.80;100.00;101064.47;5267616;28;20031;-69
2023/06/19 07:40:53;;;;;;;10.13;8.73;;;;;;;20.87;100.00;101052.72;5270211;28;20055;-68
2023/06/19 07:43:24;;;;;;;8.63;7.65;;;;;;;20.94;100.00;101061.81;5268705;28;20064;-69
2023/06/19 07:45:56;;;;;;;9.70;7.65;;;;;;;21.00;100.00;101062.97;5272201;28;20098;-68
2023/06/19 07:48:27;;;;;;;8.60;7.55;;;;;;;21.04;100.00;101053.44;5267887;28;20410;-68
2023/06/19 07:50:58;;;;;;;9.65;6.90;;;;;;;21.24;100.00;101055.66;5270723;28;20028;-68
2023/06/19 07:53:30;;;;;;;10.15;7.50;;;;;;;21.35;100.00;101064.22;5271238;28;20039;-68
2023/06/19 07:56:01;;;;;;;8.88;6.53;;;;;;;21.50;100.00;101056.13;5271225;28;20036;-68
2023/06/19 07:58:32;;;;;;;9.25;6.95;;;;;;;21.62;100.00;101063.84;5272107;28;20434;-68
2023/06/19 08:01:04;;;;;;;8.20;6.95;;;;;;;21.69;100.00;101065.63;5266129;28;20074;-68
2023/06/19 08:03:35;;;;;;;9.70;6.97;;;;;;;21.79;100.00;101069.97;5270310;28;20383;-68
2023/06/19 08:06:06;;;;;;;11.07;7.70;;;;;;;21.84;100.00;101057.50;5272020;28;20035;-68
2023/06/19 08:08:38;;;;;;;8.90;7.57;;;;;;;21.81;100.00;101073.31;5270124;28;20044;-69
2023/06/19 08:11:09;;;;;;;9.52;7.32;;;;;;;21.77;100.00;101074.72;5272938;28;20077;-68
2023/06/19 08:13:40;;;;;;;7.57;6.78;;;;;;;21.76;100.00;101071.16;5274979;28;20489;-69
2023/06/19 08:16:13;;;;;;;8.70;7.35;;;;;;;21.77;100.00;101072.84;5270058;28;20036;-69
2023/06/19 08:18:45;;;;;;;7.47;6.68;;;;;;;21.90;100.00;101070.34;5269258;28;20037;-68
2023/06/19 08:21:16;;;;;;;8.82;7.40;;;;;;;21.93;100.00;101080.81;5264551;28;20016;-68
2023/06/19 08:23:48;;;;;;;9.32;7.00;;;;;;;21.94;100.00;101073.53;5273212;28;20032;-68
2023/06/19 08:26:20;;;;;;;11.32;7.97;;;;;;;21.93;100.00;101067.22;5270682;28;20040;-69
2023/06/19 08:28:51;;;;;;;8.73;7.45;;;;;;;21.88;100.00;101058.81;5271797;28;20033;-67
2023/06/19 08:31:27;;;;;;;9.05;6.22;;;;;;;21.93;100.00;101067.22;5274391;28;20183;-68
2023/06/19 08:33:58;;;;;;;10.73;7.53;;;;;;;21.98;100.00;101084.88;5270714;28;20885;-69
2023/06/19 08:36:30;;;;;;;12.00;7.32;;;;;;;22.02;100.00;101080.75;5269970;28;20028;-68
2023/06/19 08:39:02;;;;;;;8.35;6.35;;;;;;;22.04;100.00;101084.94;5265351;28;20352;-70
2023/06/19 08:41:38;;;;;;;9.68;6.88;;;;;;;22.05;100.00;101094.81;5271862;28;20480;-73
2023/06/19 08:44:09;;;;;;;10.57;7.13;;;;;;;22.12;100.00;101090.28;5263529;28;20028;-68
2023/06/19 08:46:41;;;;;;;7.85;7.05;;;;;;;22.13;100.00;101091.97;5270719;28;20445;-67
2023/06/19 08:49:13;;;;;;;9.65;7.80;;;;;;;22.23;100.00;101093.59;5266573;28;20442;-73
2023/06/19 08:51:44;;;;;;;11.70;7.13;;;;;;;22.31;100.00;101098.94;5267237;28;20055;-70
2023/06/19 08:54:17;;;;;;;9.15;6.57;;;;;;;22.43;100.00;101104.75;5269790;28;20040;-69
2023/06/19 08:56:49;;;;;;;10.45;7.47;;;;;;;22.45;100.00;101111.66;5264764;28;20031;-71
2023/06/19 08:59:21;;;;;;;9.27;6.95;;;;;;;22.51;100.00;101119.09;5273210;28;20040;-71
2023/06/19 09:01:54;;;;;;;9.02;7.05;;;;;;;22.50;100.00;101113.84;5269752;28;20020;-70
2023/06/19 09:04:26;;;;;;;8.75;7.07;;;;;;;22.54;100.00;101114.31;5271203;28;20051;-71
2023/06/19 09:07:03;;;;;;;10.38;6.57;;;;;;;22.70;100.00;101116.78;5270428;28;20069;-70
2023/06/19 09:09:35;;;;;;;9.25;8.05;;;;;;;22.59;100.00;101103.69;5268801;28;20032;-71
2023/06/19 09:12:12;;;;;;;9.68;7.22;;;;;;;22.61;100.00;101121.50;5274002;28;20025;-70
2023/06/19 09:14:45;;;;;;;9.90;6.88;;;;;;;22.60;100.00;101116.25;5269425;28;20028;-70
2023/06/19 09:17:21;;;;;;;8.10;7.30;;;;;;;22.59;100.00;101122.72;5266994;28;20054;-71
2023/06/19 09:19:57;;;;;;;10.07;7.22;;;;;;;22.63;100.00;101129.50;5273056;28;20024;-71
2023/06/19 09:22:29;;;;;;;9.27;7.38;;;;;;;22.63;100.00;101130.31;5274456;28;20020;-71
2023/06/19 09:25:02;;;;;;;10.20;7.30;;;;;;;22.70;100.00;101138.56;5272837;28;20074;-71
2023/06/19 09:27:34;;;;;;;8.50;7.27;;;;;;;22.70;100.00;101138.56;5271289;28;20164;-70
2023/06/19 09:30:06;;;;;;;8.38;7.47;;;;;;;22.67;100.00;101130.78;5271361;28;20034;-70
2023/06/19 09:32:37;;;;;;;7.25;6.55;;;;;;;22.70;100.00;101128.53;5268359;28;20025;-70
2023/06/19 09:35:08;;;;;;;11.27;6.75;;;;;;;22.80;100.00;101143.69;5269285;28;20559;-66
2023/06/19 09:37:41;;;;;;;29.27;9.48;;;;;;;22.94;100.00;101147.44;5278425;28;20413;-67
2023/06/19 09:40:13;;;;;;;15.45;7.60;;;;;;;22.98;100.00;101151.44;5269244;28;20117;-66
2023/06/19 09:42:46;;;;;;;14.23;8.52;;;;;;;23.00;100.00;101144.78;5271635;28;20033;-66
2023/06/19 09:45:21;;;;;;;8.77;7.47;;;;;;;23.09;100.00;101142.81;5261365;28;20475;-67
2023/06/19 09:47:54;;;;;;;15.38;7.55;;;;;;;23.14;100.00;101139.50;5266404;28;20037;-66
2023/06/19 09:50:27;;;;;;;10.55;8.07;;;;;;;23.07;100.00;101142.16;5269426;28;20387;-66
2023/06/19 09:52:59;;;;;;;16.80;8.82;;;;;;;23.23;100.00;101143.78;5272627;28;20428;-67
2023/06/19 09:55:32;;;;;;;12.70;6.68;;;;;;;23.27;100.00;101140.47;5268162;28;20382;-67
2023/06/19 09:58:05;;;;;;;8.60;6.97;;;;;;;23.35;100.00;101142.22;5263358;28;20059;-67
2023/06/19 10:00:37;;;;;;;11.25;7.50;;;;;;;23.42;100.00;101147.75;5270090;28;20052;-67
2023/06/19 10:03:12;;;;;;;10.40;7.65;;;;;;;23.44;100.00;101149.25;5278776;28;20025;-67
2023/06/19 10:05:43;;;;;;;9.15;7.38;;;;;;;23.58;100.00;101152.09;5276449;28;20036;-66
2023/06/19 10:08:28;;;;;;;10.55;7.53;;;;;;;23.67;100.00;101143.56;5273670;28;20048;-67
2023/06/19 10:10:59;;;;;;;;;;;;;;;23.80;100.00;101145.63;5265700;28;20108;-66
2023/06/19 10:13:38;;;;;;;30.55;18.52;;;;;;;23.99;100.00;101154.13;5270794;28;20011;-66
2023/06/19 10:16:21;;;;;;;9.30;6.97;;;;;;;24.00;100.00;101155.81;5269921;28;20047;-68
2023/06/19 10:18:53;;;;;;;17.13;7.78;;;;;;;23.92;100.00;101151.34;5272339;28;20105;-67
2023/06/19 10:21:24;;;;;;;22.65;13.98;;;;;;;23.91;100.00;101157.84;5270416;28;20738;-67
2023/06/19 10:23:58;;;;;;;9.05;7.65;;;;;;;23.88;100.00;101158.25;5279042;28;20125;-66
2023/06/19 10:26:34;;;;;;;12.63;7.55;;;;;;;23.87;100.00;101151.97;5277594;28;20031;-67
2023/06/19 10:29:17;;;;;;;40.67;19.67;;;;;;;24.09;100.00;101148.34;5275578;28;20036;-66
2023/06/19 10:31:50;;;;;;;12.27;7.15;;;;;;;24.14;100.00;101154.84;5273961;28;20067;-66
2023/06/19 10:34:21;;;;;;;8.30;6.47;;;;;;;24.40;100.00;101156.91;5272145;28;20043;-66
2023/06/19 10:36:55;;;;;;;8.75;7.40;;;;;;;24.58;100.00;101152.84;5267062;28;20024;-66
2023/06/19 10:39:26;;;;;;;10.52;7.10;;;;;;;24.74;100.00;101163.41;5274346;28;20051;-68
2023/06/19 10:41:58;;;;;;;8.40;6.28;;;;;;;24.85;100.00;101146.47;5277844;28;20051;-68
2023/06/19 10:44:30;;;;;;;9.15;6.25;;;;;;;25.01;100.00;101150.69;5275064;28;20040;-68
2023/06/19 10:47:02;;;;;;;11.23;6.57;;;;;;;25.11;100.00;101153.03;5274578;28;20104;-66
2023/06/19 10:49:33;;;;;;;8.40;6.15;;;;;;;25.10;100.00;101154.06;5279855;28;20036;-67
2023/06/19 10:52:05;;;;;;;8.88;6.50;;;;;;;24.98;100.00;101153.00;5273277;28;20029;-66
2023/06/19 10:54:36;;;;;;;8.75;6.68;;;;;;;24.95;100.00;101142.47;5261247;28;20863;-66
2023/06/19 10:57:07;;;;;;;8.30;6.53;;;;;;;24.97;100.00;101145.88;5262645;28;20017;-66
2023/06/19 10:59:39;;;;;;;10.27;6.05;;;;;;;24.83;100.00;101142.22;5269857;28;20027;-68
2023/06/19 11:02:11;;;;;;;10.23;6.07;;;;;;;24.76;100.00;101149.56;5270752;28;20055;-66
2023/06/19 11:04:42;;;;;;;8.00;5.68;;;;;;;24.94;100.00;101140.81;5269168;28;20016;-68
2023/06/19 11:07:14;;;;;;;13.55;7.60;;;;;;;24.98;100.00;101131.16;5271886;28;20368;-68
2023/06/19 11:09:45;;;;;;;9.80;6.38;;;;;;;25.19;100.00;101136.44;5281028;28;20555;-68
2023/06/19 11:12:21;;;;;;;12.73;7.00;;;;;;;25.29;100.00;101140.72;5262255;28;20074;-66
2023/06/19 11:14:52;;;;;;;18.75;7.22;;;;;;;25.37;100.00;101129.56;5275424;28;20036;-67
2023/06/19 11:17:24;;;;;;;9.85;7.05;;;;;;;25.35;100.00;101132.53;5265886;28;20031;-67
2023/06/19 11:19:59;;;;;;;10.20;7.40;;;;;;;25.32;100.00;101135.69;5268334;28;20569;-67
2023/06/19 11:22:38;;;;;;;11.10;6.82;;;;;;;25.42;100.00;101133.38;5274483;28;20143;-67
2023/06/19 11:25:10;;;;;;;1999.90;321.48;;;;;;;25.30;100.00;101139.69;5269053;28;20032;-66
2023/06/19 11:27:51;;;;;;;37.85;9.95;;;;;;;25.30;100.00;101134.22;5280926;28;20024;-67
2023/06/19 11:30:30;;;;;;;45.13;9.05;;;;;;;25.33;100.00;101133.78;5280764;28;20031;-67
2023/06/19 11:33:02;;;;;;;9.05;6.80;;;;;;;25.31;100.00;101131.25;5272969;28;20439;-67
2023/06/19 11:35:36;;;;;;;9.75;6.95;;;;;;;25.26;100.00;101138.41;5270954;28;20040;-67
2023/06/19 11:38:08;;;;;;;17.13;6.47;;;;;;;25.30;100.00;101123.28;5275866;28;20028;-69
2023/06/19 11:40:42;;;;;;;7.75;5.82;;;;;;;25.36;100.00;101134.19;5273850;28;20049;-67